»·PEaware :: N101JP KHHR-KCRQ

N101JP :: KHHR-KCRQ

FLIGHT INFORMATION

Flight Status: Arrived
Operator: Privately registered:
United States
More flights under this callsign
Pilot: James T. (870)
Aircraft: PILATUS PC-12 EAGLE
(PC12)
More flights by this aircraft type
Origin: KHHR Northrop/Hawthorne Mun
United States
Destination: KCRQ McClellan-Palomar
United States
More flights between these airports :: More routes between these airports
Route: LIMBO V64 SLI V23 OCN
File this flight plan on PilotEdge
Remarks:
Altitude:
(Current/Filed)
9,000ft
Speed:
(Current/Filed)
200kts
Departed: 10-Feb-15 05:59 PM
Arrived: 10-Feb-15 06:39 PM
Distance/Time
Traveled:
71nm/0:40
Distance/Time
To Go:
Arrived

Flight Plot

Page will automatically refresh every two minutes.


Map Options




Map Legend


Flown Route
Filed Route
Departure Airport
Arrival Airport
Navaid (VOR, NDB)
Fix

Horizontal Profiles

Position Reports

Time Latitude Longitude Heading Altitude Ground
Speed
10-Feb-15 17:33 33.923585 -118.339623 180 71ft 0kts
10-Feb-15 17:34 33.923585 -118.339623 180 71ft 0kts
10-Feb-15 17:35 33.923585 -118.339623 180 71ft 0kts
10-Feb-15 17:36 33.923585 -118.339623 180 71ft 0kts
10-Feb-15 17:37 33.923585 -118.339623 180 71ft 0kts
10-Feb-15 17:38 33.923585 -118.339623 180 71ft 0kts
10-Feb-15 17:39 33.923585 -118.339623 180 71ft 0kts
10-Feb-15 17:40 33.923585 -118.339623 180 71ft 0kts
10-Feb-15 17:41 33.923585 -118.339623 180 71ft 0kts
10-Feb-15 17:42 33.923585 -118.339623 180 71ft 0kts
10-Feb-15 17:43 33.923585 -118.339623 180 71ft 0kts
10-Feb-15 17:44 33.923585 -118.339623 180 71ft 0kts
10-Feb-15 17:45 33.923584 -118.339623 180 71ft 0kts
10-Feb-15 17:46 33.923235 -118.338905 93 71ft 8kts
10-Feb-15 17:47 33.923216 -118.336236 86 71ft 9kts
10-Feb-15 17:48 33.923404 -118.332607 85 71ft 10kts
10-Feb-15 17:49 33.923403 -118.331562 116 71ft 0kts
10-Feb-15 17:50 33.923403 -118.331562 116 71ft 0kts
10-Feb-15 17:51 33.923403 -118.331562 116 71ft 0kts
10-Feb-15 17:52 33.923403 -118.331562 116 71ft 0kts
10-Feb-15 17:53 33.923344 -118.331447 126 71ft 3kts
10-Feb-15 17:54 33.922501 -118.349963 265 310ft 133kts
10-Feb-15 17:55 33.894696 -118.384938 223 1737ft 155kts
10-Feb-15 17:56 33.862013 -118.419088 223 3343ft 159kts
10-Feb-15 17:57 33.827802 -118.453711 223 4936ft 163kts
10-Feb-15 17:57 33.798470 -118.482627 223 6221ft 167kts
10-Feb-15 17:59 33.756398 -118.523519 223 7887ft 171kts
10-Feb-15 17:59 33.725697 -118.553553 223 8935ft 175kts
10-Feb-15 18:01 33.734524 -118.595464 25 9013ft 203kts
10-Feb-15 18:01 33.749285 -118.539362 72 8996ft 225kts
10-Feb-15 18:02 33.767140 -118.467122 67 8991ft 227kts
10-Feb-15 18:03 33.769579 -118.390637 85 8990ft 233kts
10-Feb-15 18:04 33.771322 -118.313073 84 8990ft 233kts
10-Feb-15 18:05 33.774379 -118.235156 85 8988ft 236kts
10-Feb-15 18:06 33.778084 -118.157423 86 8985ft 237kts
10-Feb-15 18:07 33.782097 -118.080037 86 8989ft 235kts
10-Feb-15 18:08 33.752442 -118.018153 136 8992ft 228kts
10-Feb-15 18:09 33.707997 -117.966000 137 8999ft 227kts
10-Feb-15 18:11 33.663712 -117.913982 137 9004ft 228kts
10-Feb-15 18:12 33.619397 -117.861344 137 9006ft 228kts
10-Feb-15 18:13 33.572245 -117.805464 137 9012ft 246kts
10-Feb-15 18:14 33.522692 -117.747060 137 9008ft 250kts
10-Feb-15 18:15 33.473100 -117.688852 137 9004ft 250kts
10-Feb-15 18:16 33.423547 -117.630943 137 9002ft 250kts
10-Feb-15 18:17 33.373954 -117.573033 137 9000ft 249kts
10-Feb-15 18:18 33.324520 -117.515369 137 8232ft 244kts
10-Feb-15 18:19 33.277678 -117.459341 136 6627ft 235kts
10-Feb-15 18:20 33.234365 -117.403214 99 5064ft 233kts
10-Feb-15 18:21 33.233150 -117.332480 92 4993ft 197kts
10-Feb-15 18:22 33.231642 -117.274414 92 4995ft 182kts
10-Feb-15 18:23 33.229956 -117.215337 92 5004ft 177kts
10-Feb-15 18:24 33.228093 -117.163158 92 5003ft 144kts
10-Feb-15 18:25 33.226093 -117.115586 92 5011ft 143kts
10-Feb-15 18:26 33.223327 -117.068397 108 5010ft 143kts
10-Feb-15 18:27 33.190307 -117.037425 176 3587ft 160kts
10-Feb-15 18:28 33.162359 -117.063593 259 3499ft 115kts
10-Feb-15 18:29 33.156746 -117.102925 260 3040ft 145kts
10-Feb-15 18:30 33.149628 -117.147322 259 2535ft 120kts
10-Feb-15 18:31 33.143510 -117.185305 258 1904ft 115kts
10-Feb-15 18:32 33.137852 -117.220532 260 1282ft 101kts
10-Feb-15 18:33 33.132591 -117.253194 258 723ft 101kts
10-Feb-15 18:34 33.128085 -117.281254 262 336ft 32kts
10-Feb-15 18:35 33.127222 -117.286456 258 336ft 11kts
10-Feb-15 18:36 33.126138 -117.286257 84 337ft 0kts

Navigation Log

Ident Type
Flight plan parsing failed, navigation log unavailable